Jwaneng, Botswana
Current Conditions -  °F | °C
As of 7:00 PM on Tuesday 21 Oct 2014 (Local Time) from FBSK Reporting Station
Few Clouds Few Clouds  
Wind Chill: 88°   Ceiling: Unl
Heat Index: 88°   Visibility: 6mi
Dew Point: 32°   Wind: 8mph
Humidity: 14%   Direction: 40°NE
Pressure: 30.03"   Gusts: NA
Location:  24.6°S, 24.67°E
Report Text: FBSK 211700Z 04007KT 9999 FEW035 31/00 Q1017 NOSIG
Loading
Personal Weather Stations






























Interactive Weather Map
Tropical Storm Tracking
New forecast layout! Learn more

10-Day Weather Forecast

Advertisements
Track Severe Weather on mobile